sensor_id;sensor_type;location;lat;lon;timestamp;P1;durP1;ratioP1;P2;durP2;ratioP2
21564;SDS011;10943;48.738;9.320;2022-09-06T00:00:26;9.40;;;3.83;;
21564;SDS011;10943;48.738;9.320;2022-09-06T00:02:53;8.52;;;3.70;;
21564;SDS011;10943;48.738;9.320;2022-09-06T00:05:21;6.55;;;4.03;;
21564;SDS011;10943;48.738;9.320;2022-09-06T00:07:48;7.60;;;3.40;;
21564;SDS011;10943;48.738;9.320;2022-09-06T00:10:16;5.43;;;3.15;;
21564;SDS011;10943;48.738;9.320;2022-09-06T00:12:43;10.50;;;3.85;;
21564;SDS011;10943;48.738;9.320;2022-09-06T00:15:12;5.75;;;3.45;;
21564;SDS011;10943;48.738;9.320;2022-09-06T00:17:39;8.02;;;3.85;;
21564;SDS011;10943;48.738;9.320;2022-09-06T00:20:07;6.85;;;3.90;;
21564;SDS011;10943;48.738;9.320;2022-09-06T00:22:35;9.73;;;4.20;;
21564;SDS011;10943;48.738;9.320;2022-09-06T00:25:04;8.73;;;3.60;;
21564;SDS011;10943;48.738;9.320;2022-09-06T00:27:33;6.95;;;3.70;;
21564;SDS011;10943;48.738;9.320;2022-09-06T00:30:02;6.15;;;3.53;;
21564;SDS011;10943;48.738;9.320;2022-09-06T00:32:31;6.35;;;3.47;;
21564;SDS011;10943;48.738;9.320;2022-09-06T00:34:58;5.03;;;3.30;;
21564;SDS011;10943;48.738;9.320;2022-09-06T00:37:25;6.35;;;3.58;;
21564;SDS011;10943;48.738;9.320;2022-09-06T00:39:53;6.07;;;3.65;;
21564;SDS011;10943;48.738;9.320;2022-09-06T00:42:20;7.55;;;4.07;;
21564;SDS011;10943;48.738;9.320;2022-09-06T00:44:48;8.75;;;3.70;;
21564;SDS011;10943;48.738;9.320;2022-09-06T00:47:16;5.60;;;4.05;;
21564;SDS011;10943;48.738;9.320;2022-09-06T00:49:45;7.07;;;4.00;;
21564;SDS011;10943;48.738;9.320;2022-09-06T00:52:19;8.80;;;3.85;;
21564;SDS011;10943;48.738;9.320;2022-09-06T00:54:48;6.20;;;3.65;;
21564;SDS011;10943;48.738;9.320;2022-09-06T00:57:17;8.75;;;3.72;;
21564;SDS011;10943;48.738;9.320;2022-09-06T00:59:45;6.70;;;3.83;;
21564;SDS011;10943;48.738;9.320;2022-09-06T01:02:14;7.75;;;4.70;;
21564;SDS011;10943;48.738;9.320;2022-09-06T01:04:42;6.30;;;4.50;;
21564;SDS011;10943;48.738;9.320;2022-09-06T01:28:52;6.55;;;4.95;;
21564;SDS011;10943;48.738;9.320;2022-09-06T01:36:39;9.70;;;4.90;;
21564;SDS011;10943;48.738;9.320;2022-09-06T01:39:36;8.32;;;4.78;;
21564;SDS011;10943;48.738;9.320;2022-09-06T01:42:09;9.75;;;4.90;;
21564;SDS011;10943;48.738;9.320;2022-09-06T01:44:47;6.10;;;4.10;;
21564;SDS011;10943;48.738;9.320;2022-09-06T01:52:58;9.18;;;4.47;;
21564;SDS011;10943;48.738;9.320;2022-09-06T01:56:18;7.55;;;4.35;;
21564;SDS011;10943;48.738;9.320;2022-09-06T02:07:14;9.13;;;6.32;;
21564;SDS011;10943;48.738;9.320;2022-09-06T02:09:52;9.13;;;5.82;;
21564;SDS011;10943;48.738;9.320;2022-09-06T02:12:49;9.60;;;5.32;;
21564;SDS011;10943;48.738;9.320;2022-09-06T02:15:23;6.63;;;5.18;;
21564;SDS011;10943;48.738;9.320;2022-09-06T02:18:01;8.32;;;5.30;;
21564;SDS011;10943;48.738;9.320;2022-09-06T02:20:55;6.25;;;4.82;;
21564;SDS011;10943;48.738;9.320;2022-09-06T02:23:28;9.70;;;4.68;;
21564;SDS011;10943;48.738;9.320;2022-09-06T02:26:07;7.25;;;4.60;;
21564;SDS011;10943;48.738;9.320;2022-09-06T02:28:45;8.82;;;5.22;;
21564;SDS011;10943;48.738;9.320;2022-09-06T02:31:15;7.75;;;4.40;;
21564;SDS011;10943;48.738;9.320;2022-09-06T02:34:14;9.65;;;4.65;;
21564;SDS011;10943;48.738;9.320;2022-09-06T02:36:45;8.40;;;4.97;;
21564;SDS011;10943;48.738;9.320;2022-09-06T02:39:14;10.98;;;5.18;;
21564;SDS011;10943;48.738;9.320;2022-09-06T02:41:42;8.50;;;4.32;;
21564;SDS011;10943;48.738;9.320;2022-09-06T02:44:13;6.57;;;4.63;;
21564;SDS011;10943;48.738;9.320;2022-09-06T02:46:41;8.10;;;4.97;;
21564;SDS011;10943;48.738;9.320;2022-09-06T02:49:08;7.95;;;4.43;;
21564;SDS011;10943;48.738;9.320;2022-09-06T02:51:36;7.00;;;4.00;;
21564;SDS011;10943;48.738;9.320;2022-09-06T02:54:05;5.45;;;3.90;;
21564;SDS011;10943;48.738;9.320;2022-09-06T02:56:34;7.10;;;4.22;;
21564;SDS011;10943;48.738;9.320;2022-09-06T02:59:02;5.57;;;3.83;;
21564;SDS011;10943;48.738;9.320;2022-09-06T03:01:31;7.38;;;4.20;;
21564;SDS011;10943;48.738;9.320;2022-09-06T03:04:00;8.95;;;4.03;;
21564;SDS011;10943;48.738;9.320;2022-09-06T03:06:27;6.22;;;4.00;;
21564;SDS011;10943;48.738;9.320;2022-09-06T03:08:55;6.68;;;3.90;;
21564;SDS011;10943;48.738;9.320;2022-09-06T03:11:24;6.55;;;4.40;;
21564;SDS011;10943;48.738;9.320;2022-09-06T03:13:52;9.05;;;4.45;;
21564;SDS011;10943;48.738;9.320;2022-09-06T03:16:20;22.15;;;5.93;;
21564;SDS011;10943;48.738;9.320;2022-09-06T03:18:48;12.73;;;6.72;;
21564;SDS011;10943;48.738;9.320;2022-09-06T03:21:15;10.40;;;6.90;;
21564;SDS011;10943;48.738;9.320;2022-09-06T03:23:43;10.82;;;7.10;;
21564;SDS011;10943;48.738;9.320;2022-09-06T03:26:11;12.85;;;7.88;;
21564;SDS011;10943;48.738;9.320;2022-09-06T03:28:39;14.00;;;8.88;;
21564;SDS011;10943;48.738;9.320;2022-09-06T03:31:06;16.60;;;10.27;;
21564;SDS011;10943;48.738;9.320;2022-09-06T03:33:34;16.17;;;10.25;;
21564;SDS011;10943;48.738;9.320;2022-09-06T03:36:03;23.75;;;9.90;;
21564;SDS011;10943;48.738;9.320;2022-09-06T03:38:31;13.65;;;9.02;;
21564;SDS011;10943;48.738;9.320;2022-09-06T03:40:58;18.58;;;11.02;;
21564;SDS011;10943;48.738;9.320;2022-09-06T03:43:26;17.90;;;10.48;;
21564;SDS011;10943;48.738;9.320;2022-09-06T03:45:55;20.85;;;11.52;;
21564;SDS011;10943;48.738;9.320;2022-09-06T03:48:23;22.20;;;11.80;;
21564;SDS011;10943;48.738;9.320;2022-09-06T03:50:56;25.08;;;12.23;;
21564;SDS011;10943;48.738;9.320;2022-09-06T03:53:25;15.73;;;11.20;;
21564;SDS011;10943;48.738;9.320;2022-09-06T03:55:55;18.98;;;11.23;;
21564;SDS011;10943;48.738;9.320;2022-09-06T03:58:27;19.77;;;11.32;;
21564;SDS011;10943;48.738;9.320;2022-09-06T04:00:59;16.35;;;10.20;;
21564;SDS011;10943;48.738;9.320;2022-09-06T04:03:35;18.02;;;11.02;;
21564;SDS011;10943;48.738;9.320;2022-09-06T04:06:04;18.80;;;11.50;;
21564;SDS011;10943;48.738;9.320;2022-09-06T04:08:34;24.05;;;12.15;;
21564;SDS011;10943;48.738;9.320;2022-09-06T04:11:03;16.25;;;10.70;;
21564;SDS011;10943;48.738;9.320;2022-09-06T04:13:31;21.60;;;11.57;;
21564;SDS011;10943;48.738;9.320;2022-09-06T04:16:00;21.95;;;12.02;;
21564;SDS011;10943;48.738;9.320;2022-09-06T04:18:30;19.83;;;12.85;;
21564;SDS011;10943;48.738;9.320;2022-09-06T04:20:58;22.08;;;13.05;;
21564;SDS011;10943;48.738;9.320;2022-09-06T04:23:26;20.80;;;13.18;;
21564;SDS011;10943;48.738;9.320;2022-09-06T04:25:55;22.10;;;12.55;;
21564;SDS011;10943;48.738;9.320;2022-09-06T04:28:25;21.20;;;11.63;;
21564;SDS011;10943;48.738;9.320;2022-09-06T04:30:54;22.48;;;12.27;;
21564;SDS011;10943;48.738;9.320;2022-09-06T04:33:30;27.50;;;12.73;;
21564;SDS011;10943;48.738;9.320;2022-09-06T04:36:02;26.17;;;12.43;;
21564;SDS011;10943;48.738;9.320;2022-09-06T04:38:37;27.42;;;13.35;;
21564;SDS011;10943;48.738;9.320;2022-09-06T04:41:09;27.35;;;14.15;;
21564;SDS011;10943;48.738;9.320;2022-09-06T04:43:38;20.48;;;12.32;;
21564;SDS011;10943;48.738;9.320;2022-09-06T04:46:09;26.70;;;15.32;;
21564;SDS011;10943;48.738;9.320;2022-09-06T04:48:50;21.00;;;13.57;;
21564;SDS011;10943;48.738;9.320;2022-09-06T04:51:21;28.58;;;14.45;;
21564;SDS011;10943;48.738;9.320;2022-09-06T04:53:50;16.50;;;12.45;;
21564;SDS011;10943;48.738;9.320;2022-09-06T04:56:19;19.63;;;12.90;;
21564;SDS011;10943;48.738;9.320;2022-09-06T04:58:51;22.98;;;13.85;;
21564;SDS011;10943;48.738;9.320;2022-09-06T05:01:20;26.63;;;14.43;;
21564;SDS011;10943;48.738;9.320;2022-09-06T05:03:48;26.83;;;14.60;;
21564;SDS011;10943;48.738;9.320;2022-09-06T05:06:22;35.28;;;16.52;;
21564;SDS011;10943;48.738;9.320;2022-09-06T05:08:51;23.75;;;13.85;;
21564;SDS011;10943;48.738;9.320;2022-09-06T05:11:19;26.58;;;14.02;;
21564;SDS011;10943;48.738;9.320;2022-09-06T05:13:46;29.10;;;15.23;;
21564;SDS011;10943;48.738;9.320;2022-09-06T05:16:15;26.45;;;15.80;;
21564;SDS011;10943;48.738;9.320;2022-09-06T05:18:43;26.83;;;16.27;;
21564;SDS011;10943;48.738;9.320;2022-09-06T05:21:10;29.52;;;16.67;;
21564;SDS011;10943;48.738;9.320;2022-09-06T05:23:38;21.63;;;15.40;;
21564;SDS011;10943;48.738;9.320;2022-09-06T05:26:05;19.55;;;14.85;;
21564;SDS011;10943;48.738;9.320;2022-09-06T05:28:33;32.70;;;17.50;;
21564;SDS011;10943;48.738;9.320;2022-09-06T05:31:09;40.63;;;18.42;;
21564;SDS011;10943;48.738;9.320;2022-09-06T05:33:51;24.05;;;15.10;;
21564;SDS011;10943;48.738;9.320;2022-09-06T05:36:20;33.20;;;18.45;;
21564;SDS011;10943;48.738;9.320;2022-09-06T05:38:50;27.23;;;15.82;;
21564;SDS011;10943;48.738;9.320;2022-09-06T05:41:20;33.85;;;18.35;;
21564;SDS011;10943;48.738;9.320;2022-09-06T05:43:49;40.75;;;18.50;;
21564;SDS011;10943;48.738;9.320;2022-09-06T05:46:16;30.23;;;16.23;;
21564;SDS011;10943;48.738;9.320;2022-09-06T05:48:50;22.20;;;13.50;;
21564;SDS011;10943;48.738;9.320;2022-09-06T05:51:20;18.58;;;12.50;;
21564;SDS011;10943;48.738;9.320;2022-09-06T05:53:47;18.13;;;12.55;;
21564;SDS011;10943;48.738;9.320;2022-09-06T05:56:15;17.00;;;10.68;;
21564;SDS011;10943;48.738;9.320;2022-09-06T05:58:44;18.33;;;13.02;;
21564;SDS011;10943;48.738;9.320;2022-09-06T06:01:14;22.33;;;13.75;;
21564;SDS011;10943;48.738;9.320;2022-09-06T06:03:56;19.88;;;12.63;;
21564;SDS011;10943;48.738;9.320;2022-09-06T06:06:29;25.83;;;14.10;;
21564;SDS011;10943;48.738;9.320;2022-09-06T06:09:00;19.88;;;12.43;;
21564;SDS011;10943;48.738;9.320;2022-09-06T06:11:27;16.85;;;12.65;;
21564;SDS011;10943;48.738;9.320;2022-09-06T06:13:57;18.27;;;12.48;;
21564;SDS011;10943;48.738;9.320;2022-09-06T06:16:24;25.52;;;13.48;;
21564;SDS011;10943;48.738;9.320;2022-09-06T06:18:52;15.63;;;12.80;;
21564;SDS011;10943;48.738;9.320;2022-09-06T06:21:20;21.77;;;12.93;;
21564;SDS011;10943;48.738;9.320;2022-09-06T06:23:53;22.25;;;14.00;;
21564;SDS011;10943;48.738;9.320;2022-09-06T06:26:24;20.65;;;13.07;;
21564;SDS011;10943;48.738;9.320;2022-09-06T06:28:54;20.75;;;13.02;;
21564;SDS011;10943;48.738;9.320;2022-09-06T06:31:24;18.75;;;12.60;;
21564;SDS011;10943;48.738;9.320;2022-09-06T06:33:51;19.38;;;12.25;;
21564;SDS011;10943;48.738;9.320;2022-09-06T06:36:20;16.35;;;11.65;;
21564;SDS011;10943;48.738;9.320;2022-09-06T06:38:53;15.50;;;11.50;;
21564;SDS011;10943;48.738;9.320;2022-09-06T06:41:22;20.23;;;11.55;;
21564;SDS011;10943;48.738;9.320;2022-09-06T06:43:54;16.05;;;11.55;;
21564;SDS011;10943;48.738;9.320;2022-09-06T06:46:26;18.05;;;11.35;;
21564;SDS011;10943;48.738;9.320;2022-09-06T06:48:57;14.77;;;10.48;;
21564;SDS011;10943;48.738;9.320;2022-09-06T06:51:26;16.10;;;10.73;;
21564;SDS011;10943;48.738;9.320;2022-09-06T06:53:57;16.35;;;10.90;;
21564;SDS011;10943;48.738;9.320;2022-09-06T06:56:27;15.80;;;11.48;;
21564;SDS011;10943;48.738;9.320;2022-09-06T06:59:00;17.00;;;9.55;;
21564;SDS011;10943;48.738;9.320;2022-09-06T07:01:30;9.75;;;7.55;;
21564;SDS011;10943;48.738;9.320;2022-09-06T07:04:01;11.35;;;6.80;;
21564;SDS011;10943;48.738;9.320;2022-09-06T07:06:38;10.27;;;6.20;;
21564;SDS011;10943;48.738;9.320;2022-09-06T07:09:38;11.52;;;6.07;;
21564;SDS011;10943;48.738;9.320;2022-09-06T07:12:26;10.07;;;5.60;;
21564;SDS011;10943;48.738;9.320;2022-09-06T07:14:53;8.02;;;4.65;;
21564;SDS011;10943;48.738;9.320;2022-09-06T07:17:21;7.47;;;4.32;;
21564;SDS011;10943;48.738;9.320;2022-09-06T07:19:49;10.10;;;4.55;;
21564;SDS011;10943;48.738;9.320;2022-09-06T07:22:37;7.30;;;3.97;;
21564;SDS011;10943;48.738;9.320;2022-09-06T07:25:06;8.75;;;3.90;;
21564;SDS011;10943;48.738;9.320;2022-09-06T07:27:39;5.60;;;3.53;;
21564;SDS011;10943;48.738;9.320;2022-09-06T07:30:13;8.63;;;3.60;;
21564;SDS011;10943;48.738;9.320;2022-09-06T07:32:41;6.40;;;3.28;;
21564;SDS011;10943;48.738;9.320;2022-09-06T07:35:08;7.57;;;3.60;;
21564;SDS011;10943;48.738;9.320;2022-09-06T07:37:38;6.83;;;4.17;;
21564;SDS011;10943;48.738;9.320;2022-09-06T07:40:05;8.88;;;4.80;;
21564;SDS011;10943;48.738;9.320;2022-09-06T07:42:33;7.72;;;3.85;;
21564;SDS011;10943;48.738;9.320;2022-09-06T07:45:03;7.50;;;4.05;;
21564;SDS011;10943;48.738;9.320;2022-09-06T07:47:31;6.53;;;3.78;;
21564;SDS011;10943;48.738;9.320;2022-09-06T07:50:19;6.43;;;3.53;;
21564;SDS011;10943;48.738;9.320;2022-09-06T07:53:07;9.02;;;3.70;;
21564;SDS011;10943;48.738;9.320;2022-09-06T07:55:43;6.25;;;3.00;;
21564;SDS011;10943;48.738;9.320;2022-09-06T07:58:10;5.57;;;3.13;;
21564;SDS011;10943;48.738;9.320;2022-09-06T08:00:37;7.40;;;2.92;;
21564;SDS011;10943;48.738;9.320;2022-09-06T08:03:07;6.13;;;2.70;;
21564;SDS011;10943;48.738;9.320;2022-09-06T08:05:35;6.30;;;3.17;;
21564;SDS011;10943;48.738;9.320;2022-09-06T08:08:23;9.75;;;3.10;;
21564;SDS011;10943;48.738;9.320;2022-09-06T08:11:12;5.53;;;2.78;;
21564;SDS011;10943;48.738;9.320;2022-09-06T08:13:40;7.65;;;3.20;;
21564;SDS011;10943;48.738;9.320;2022-09-06T08:16:09;6.55;;;2.88;;
21564;SDS011;10943;48.738;9.320;2022-09-06T08:18:38;7.35;;;3.05;;
21564;SDS011;10943;48.738;9.320;2022-09-06T08:21:07;7.65;;;3.15;;
21564;SDS011;10943;48.738;9.320;2022-09-06T08:23:51;6.88;;;3.72;;
21564;SDS011;10943;48.738;9.320;2022-09-06T08:26:24;5.90;;;3.10;;
21564;SDS011;10943;48.738;9.320;2022-09-06T08:28:56;5.13;;;2.88;;
21564;SDS011;10943;48.738;9.320;2022-09-06T08:31:28;7.32;;;2.92;;
21564;SDS011;10943;48.738;9.320;2022-09-06T08:33:58;7.45;;;3.35;;
21564;SDS011;10943;48.738;9.320;2022-09-06T08:36:27;8.93;;;3.50;;
21564;SDS011;10943;48.738;9.320;2022-09-06T08:38:56;6.93;;;3.00;;
21564;SDS011;10943;48.738;9.320;2022-09-06T08:44:07;7.63;;;3.40;;
21564;SDS011;10943;48.738;9.320;2022-09-06T08:47:06;8.52;;;3.10;;
21564;SDS011;10943;48.738;9.320;2022-09-06T08:49:43;7.70;;;3.22;;
21564;SDS011;10943;48.738;9.320;2022-09-06T08:52:19;7.05;;;2.78;;
21564;SDS011;10943;48.738;9.320;2022-09-06T09:00:35;6.78;;;2.80;;
21564;SDS011;10943;48.738;9.320;2022-09-06T09:03:08;8.15;;;2.30;;
21564;SDS011;10943;48.738;9.320;2022-09-06T09:05:45;8.95;;;3.05;;
21564;SDS011;10943;48.738;9.320;2022-09-06T09:08:23;6.20;;;3.05;;
21564;SDS011;10943;48.738;9.320;2022-09-06T09:11:15;7.47;;;2.53;;
21564;SDS011;10943;48.738;9.320;2022-09-06T09:13:57;7.65;;;2.90;;
21564;SDS011;10943;48.738;9.320;2022-09-06T09:17:00;4.88;;;2.58;;
21564;SDS011;10943;48.738;9.320;2022-09-06T09:19:39;6.78;;;2.80;;
21564;SDS011;10943;48.738;9.320;2022-09-06T09:22:08;6.18;;;2.67;;
21564;SDS011;10943;48.738;9.320;2022-09-06T09:24:45;5.65;;;2.70;;
21564;SDS011;10943;48.738;9.320;2022-09-06T09:27:18;5.82;;;2.47;;
21564;SDS011;10943;48.738;9.320;2022-09-06T09:38:12;7.22;;;3.08;;
21564;SDS011;10943;48.738;9.320;2022-09-06T09:40:53;9.40;;;2.95;;
21564;SDS011;10943;48.738;9.320;2022-09-06T09:43:37;6.88;;;2.60;;
21564;SDS011;10943;48.738;9.320;2022-09-06T09:48:59;7.90;;;2.60;;
21564;SDS011;10943;48.738;9.320;2022-09-06T09:51:45;9.18;;;2.45;;
21564;SDS011;10943;48.738;9.320;2022-09-06T09:54:40;9.15;;;3.20;;
21564;SDS011;10943;48.738;9.320;2022-09-06T09:57:13;6.57;;;2.35;;
21564;SDS011;10943;48.738;9.320;2022-09-06T09:59:45;6.32;;;2.50;;
21564;SDS011;10943;48.738;9.320;2022-09-06T10:02:29;6.15;;;2.40;;
21564;SDS011;10943;48.738;9.320;2022-09-06T10:05:03;5.60;;;2.28;;
21564;SDS011;10943;48.738;9.320;2022-09-06T10:07:47;7.65;;;2.78;;
21564;SDS011;10943;48.738;9.320;2022-09-06T10:10:29;7.28;;;2.50;;
21564;SDS011;10943;48.738;9.320;2022-09-06T10:15:53;10.27;;;2.70;;
21564;SDS011;10943;48.738;9.320;2022-09-06T10:21:13;6.30;;;2.50;;
21564;SDS011;10943;48.738;9.320;2022-09-06T10:39:55;11.55;;;2.60;;
21564;SDS011;10943;48.738;9.320;2022-09-06T10:45:27;9.13;;;2.55;;
21564;SDS011;10943;48.738;9.320;2022-09-06T10:56:55;12.20;;;2.80;;
21564;SDS011;10943;48.738;9.320;2022-09-06T10:59:33;10.20;;;2.80;;
21564;SDS011;10943;48.738;9.320;2022-09-06T11:04:53;11.18;;;2.58;;
21564;SDS011;10943;48.738;9.320;2022-09-06T11:07:58;8.77;;;2.67;;
21564;SDS011;10943;48.738;9.320;2022-09-06T11:10:51;10.77;;;2.70;;
21564;SDS011;10943;48.738;9.320;2022-09-06T11:13:22;13.98;;;2.67;;
21564;SDS011;10943;48.738;9.320;2022-09-06T11:15:56;9.88;;;2.75;;
21564;SDS011;10943;48.738;9.320;2022-09-06T11:24:14;9.45;;;2.58;;
21564;SDS011;10943;48.738;9.320;2022-09-06T11:37:25;11.73;;;2.72;;
21564;SDS011;10943;48.738;9.320;2022-09-06T11:40:21;9.60;;;2.67;;
21564;SDS011;10943;48.738;9.320;2022-09-06T11:45:43;8.20;;;2.40;;
21564;SDS011;10943;48.738;9.320;2022-09-06T11:51:29;10.27;;;2.80;;
21564;SDS011;10943;48.738;9.320;2022-09-06T11:59:28;9.45;;;2.63;;
21564;SDS011;10943;48.738;9.320;2022-09-06T12:05:08;8.02;;;2.30;;
21564;SDS011;10943;48.738;9.320;2022-09-06T12:10:55;8.98;;;2.53;;
21564;SDS011;10943;48.738;9.320;2022-09-06T12:13:47;8.13;;;2.60;;
21564;SDS011;10943;48.738;9.320;2022-09-06T12:16:24;8.32;;;2.60;;
21564;SDS011;10943;48.738;9.320;2022-09-06T12:19:39;10.77;;;2.53;;
21564;SDS011;10943;48.738;9.320;2022-09-06T12:31:29;9.93;;;2.60;;
21564;SDS011;10943;48.738;9.320;2022-09-06T12:34:18;9.07;;;2.25;;
21564;SDS011;10943;48.738;9.320;2022-09-06T12:36:53;9.45;;;2.80;;
21564;SDS011;10943;48.738;9.320;2022-09-06T12:39:26;10.60;;;2.55;;
21564;SDS011;10943;48.738;9.320;2022-09-06T12:41:56;9.20;;;2.40;;
21564;SDS011;10943;48.738;9.320;2022-09-06T12:44:33;7.40;;;2.63;;
21564;SDS011;10943;48.738;9.320;2022-09-06T12:49:46;11.02;;;2.55;;
21564;SDS011;10943;48.738;9.320;2022-09-06T12:52:55;9.75;;;2.70;;
21564;SDS011;10943;48.738;9.320;2022-09-06T12:55:30;7.32;;;2.15;;
21564;SDS011;10943;48.738;9.320;2022-09-06T12:58:05;8.95;;;2.63;;
21564;SDS011;10943;48.738;9.320;2022-09-06T13:00:41;8.32;;;2.80;;
21564;SDS011;10943;48.738;9.320;2022-09-06T13:05:55;7.43;;;2.20;;
21564;SDS011;10943;48.738;9.320;2022-09-06T13:08:47;9.20;;;2.83;;
21564;SDS011;10943;48.738;9.320;2022-09-06T13:11:35;11.38;;;2.72;;
21564;SDS011;10943;48.738;9.320;2022-09-06T13:14:11;8.98;;;2.15;;
21564;SDS011;10943;48.738;9.320;2022-09-06T13:16:57;8.50;;;2.75;;
21564;SDS011;10943;48.738;9.320;2022-09-06T13:19:30;7.43;;;2.60;;
21564;SDS011;10943;48.738;9.320;2022-09-06T13:22:09;8.43;;;2.83;;
21564;SDS011;10943;48.738;9.320;2022-09-06T13:30:04;8.35;;;2.65;;
21564;SDS011;10943;48.738;9.320;2022-09-06T13:33:05;9.00;;;2.50;;
21564;SDS011;10943;48.738;9.320;2022-09-06T13:35:48;9.85;;;2.78;;
21564;SDS011;10943;48.738;9.320;2022-09-06T13:38:39;7.53;;;3.05;;
21564;SDS011;10943;48.738;9.320;2022-09-06T13:44:26;7.28;;;2.90;;
21564;SDS011;10943;48.738;9.320;2022-09-06T13:46:57;9.80;;;3.20;;
21564;SDS011;10943;48.738;9.320;2022-09-06T13:49:25;9.07;;;2.70;;
21564;SDS011;10943;48.738;9.320;2022-09-06T13:51:57;10.45;;;2.80;;
21564;SDS011;10943;48.738;9.320;2022-09-06T13:54:29;8.80;;;2.78;;
21564;SDS011;10943;48.738;9.320;2022-09-06T13:56:58;8.70;;;2.80;;
21564;SDS011;10943;48.738;9.320;2022-09-06T13:59:29;8.90;;;2.90;;
21564;SDS011;10943;48.738;9.320;2022-09-06T14:01:59;8.45;;;2.63;;
21564;SDS011;10943;48.738;9.320;2022-09-06T14:04:33;7.03;;;2.60;;
21564;SDS011;10943;48.738;9.320;2022-09-06T14:07:02;8.98;;;2.70;;
21564;SDS011;10943;48.738;9.320;2022-09-06T14:09:30;9.52;;;2.78;;
21564;SDS011;10943;48.738;9.320;2022-09-06T14:12:02;9.25;;;2.97;;
21564;SDS011;10943;48.738;9.320;2022-09-06T14:14:32;9.82;;;2.78;;
21564;SDS011;10943;48.738;9.320;2022-09-06T14:17:00;8.13;;;2.80;;
21564;SDS011;10943;48.738;9.320;2022-09-06T14:19:28;8.50;;;2.70;;
21564;SDS011;10943;48.738;9.320;2022-09-06T14:21:55;11.27;;;3.28;;
21564;SDS011;10943;48.738;9.320;2022-09-06T14:24:23;8.50;;;2.58;;
21564;SDS011;10943;48.738;9.320;2022-09-06T14:26:50;12.50;;;3.00;;
21564;SDS011;10943;48.738;9.320;2022-09-06T14:29:18;10.07;;;3.13;;
21564;SDS011;10943;48.738;9.320;2022-09-06T14:31:46;14.93;;;3.85;;
21564;SDS011;10943;48.738;9.320;2022-09-06T14:34:14;11.27;;;3.33;;
21564;SDS011;10943;48.738;9.320;2022-09-06T14:36:41;9.40;;;2.90;;
21564;SDS011;10943;48.738;9.320;2022-09-06T14:39:09;9.40;;;2.92;;
21564;SDS011;10943;48.738;9.320;2022-09-06T14:41:36;13.25;;;3.72;;
21564;SDS011;10943;48.738;9.320;2022-09-06T14:44:04;11.40;;;3.25;;
21564;SDS011;10943;48.738;9.320;2022-09-06T14:46:31;8.35;;;2.75;;
21564;SDS011;10943;48.738;9.320;2022-09-06T14:49:00;6.93;;;2.83;;
21564;SDS011;10943;48.738;9.320;2022-09-06T14:51:33;9.65;;;2.53;;
21564;SDS011;10943;48.738;9.320;2022-09-06T14:54:05;9.93;;;2.92;;
21564;SDS011;10943;48.738;9.320;2022-09-06T14:56:38;10.13;;;3.08;;
21564;SDS011;10943;48.738;9.320;2022-09-06T14:59:07;10.02;;;2.67;;
21564;SDS011;10943;48.738;9.320;2022-09-06T15:01:36;8.65;;;2.78;;
21564;SDS011;10943;48.738;9.320;2022-09-06T15:04:07;9.10;;;2.90;;
21564;SDS011;10943;48.738;9.320;2022-09-06T15:06:37;10.13;;;2.75;;
21564;SDS011;10943;48.738;9.320;2022-09-06T15:09:10;9.50;;;2.63;;
21564;SDS011;10943;48.738;9.320;2022-09-06T15:11:38;9.48;;;3.10;;
21564;SDS011;10943;48.738;9.320;2022-09-06T15:14:12;10.32;;;2.90;;
21564;SDS011;10943;48.738;9.320;2022-09-06T15:16:48;8.98;;;3.00;;
21564;SDS011;10943;48.738;9.320;2022-09-06T15:19:26;8.90;;;3.30;;
21564;SDS011;10943;48.738;9.320;2022-09-06T15:21:55;8.35;;;2.63;;
21564;SDS011;10943;48.738;9.320;2022-09-06T15:24:23;9.02;;;3.13;;
21564;SDS011;10943;48.738;9.320;2022-09-06T15:26:51;7.93;;;2.88;;
21564;SDS011;10943;48.738;9.320;2022-09-06T15:29:19;7.60;;;2.90;;
21564;SDS011;10943;48.738;9.320;2022-09-06T15:31:47;7.93;;;2.60;;
21564;SDS011;10943;48.738;9.320;2022-09-06T15:34:16;10.07;;;2.88;;
21564;SDS011;10943;48.738;9.320;2022-09-06T15:36:46;8.93;;;2.60;;
21564;SDS011;10943;48.738;9.320;2022-09-06T15:39:15;9.95;;;2.75;;
21564;SDS011;10943;48.738;9.320;2022-09-06T15:41:43;8.77;;;2.80;;
21564;SDS011;10943;48.738;9.320;2022-09-06T15:44:12;8.70;;;2.55;;
21564;SDS011;10943;48.738;9.320;2022-09-06T15:46:44;6.78;;;2.67;;
21564;SDS011;10943;48.738;9.320;2022-09-06T15:49:21;9.43;;;2.72;;
21564;SDS011;10943;48.738;9.320;2022-09-06T15:51:55;9.02;;;3.10;;
21564;SDS011;10943;48.738;9.320;2022-09-06T15:54:27;7.57;;;2.67;;
21564;SDS011;10943;48.738;9.320;2022-09-06T15:57:15;6.35;;;2.70;;
21564;SDS011;10943;48.738;9.320;2022-09-06T15:59:43;9.73;;;2.70;;
21564;SDS011;10943;48.738;9.320;2022-09-06T16:02:12;7.35;;;2.70;;
21564;SDS011;10943;48.738;9.320;2022-09-06T16:04:40;11.15;;;2.90;;
21564;SDS011;10943;48.738;9.320;2022-09-06T16:07:07;10.45;;;2.92;;
21564;SDS011;10943;48.738;9.320;2022-09-06T16:09:35;10.13;;;2.90;;
21564;SDS011;10943;48.738;9.320;2022-09-06T16:12:03;7.75;;;2.65;;
21564;SDS011;10943;48.738;9.320;2022-09-06T16:14:31;7.88;;;2.63;;
21564;SDS011;10943;48.738;9.320;2022-09-06T16:16:59;8.65;;;2.60;;
21564;SDS011;10943;48.738;9.320;2022-09-06T16:19:26;8.45;;;2.55;;
21564;SDS011;10943;48.738;9.320;2022-09-06T16:21:54;9.35;;;2.80;;
21564;SDS011;10943;48.738;9.320;2022-09-06T16:24:21;8.55;;;2.70;;
21564;SDS011;10943;48.738;9.320;2022-09-06T16:26:51;9.65;;;2.60;;
21564;SDS011;10943;48.738;9.320;2022-09-06T16:29:19;7.75;;;2.80;;
21564;SDS011;10943;48.738;9.320;2022-09-06T16:31:46;10.30;;;2.95;;
21564;SDS011;10943;48.738;9.320;2022-09-06T16:34:14;10.25;;;2.78;;
21564;SDS011;10943;48.738;9.320;2022-09-06T16:36:42;11.20;;;2.60;;
21564;SDS011;10943;48.738;9.320;2022-09-06T16:39:09;11.80;;;2.65;;
21564;SDS011;10943;48.738;9.320;2022-09-06T16:44:17;9.13;;;3.10;;
21564;SDS011;10943;48.738;9.320;2022-09-06T16:46:46;8.55;;;3.13;;
21564;SDS011;10943;48.738;9.320;2022-09-06T16:49:16;9.25;;;3.25;;
21564;SDS011;10943;48.738;9.320;2022-09-06T16:51:45;9.63;;;3.50;;
21564;SDS011;10943;48.738;9.320;2022-09-06T16:54:15;8.23;;;3.50;;
21564;SDS011;10943;48.738;9.320;2022-09-06T16:56:48;9.77;;;3.70;;
21564;SDS011;10943;48.738;9.320;2022-09-06T16:59:15;9.63;;;3.60;;
21564;SDS011;10943;48.738;9.320;2022-09-06T17:01:43;8.60;;;3.88;;
21564;SDS011;10943;48.738;9.320;2022-09-06T17:04:12;11.43;;;4.70;;
21564;SDS011;10943;48.738;9.320;2022-09-06T17:06:40;7.50;;;3.40;;
21564;SDS011;10943;48.738;9.320;2022-09-06T17:09:11;8.13;;;3.60;;
21564;SDS011;10943;48.738;9.320;2022-09-06T17:11:43;10.48;;;3.38;;
21564;SDS011;10943;48.738;9.320;2022-09-06T17:14:11;8.93;;;3.50;;
21564;SDS011;10943;48.738;9.320;2022-09-06T17:16:39;10.73;;;4.18;;
21564;SDS011;10943;48.738;9.320;2022-09-06T17:19:27;8.75;;;3.92;;
21564;SDS011;10943;48.738;9.320;2022-09-06T17:21:57;10.00;;;3.60;;
21564;SDS011;10943;48.738;9.320;2022-09-06T17:24:24;11.00;;;3.70;;
21564;SDS011;10943;48.738;9.320;2022-09-06T17:26:52;8.45;;;3.28;;
21564;SDS011;10943;48.738;9.320;2022-09-06T17:29:20;10.15;;;3.63;;
21564;SDS011;10943;48.738;9.320;2022-09-06T17:31:48;9.45;;;3.83;;
21564;SDS011;10943;48.738;9.320;2022-09-06T17:34:15;10.25;;;3.92;;
21564;SDS011;10943;48.738;9.320;2022-09-06T17:36:43;9.43;;;3.80;;
21564;SDS011;10943;48.738;9.320;2022-09-06T17:39:12;6.50;;;3.25;;
21564;SDS011;10943;48.738;9.320;2022-09-06T17:41:47;9.23;;;4.00;;
21564;SDS011;10943;48.738;9.320;2022-09-06T17:44:21;12.85;;;4.75;;
21564;SDS011;10943;48.738;9.320;2022-09-06T17:46:51;8.90;;;4.15;;
21564;SDS011;10943;48.738;9.320;2022-09-06T17:49:41;8.70;;;3.63;;